sensor_id;sensor_type;location;lat;lon;timestamp;temperature;humidity
66035;HTU21D;52805;51.074;5.842;2023-05-15T00:00:05;16.11;118.99
66035;HTU21D;52805;51.074;5.842;2023-05-15T00:02:38;16.07;118.99
66035;HTU21D;52805;51.074;5.842;2023-05-15T00:05:08;16.08;118.99
66035;HTU21D;52805;51.074;5.842;2023-05-15T00:07:34;16.01;118.99
66035;HTU21D;52805;51.074;5.842;2023-05-15T00:10:00;15.92;118.99
66035;HTU21D;52805;51.074;5.842;2023-05-15T00:12:26;15.87;118.99
66035;HTU21D;52805;51.074;5.842;2023-05-15T00:14:52;15.87;118.99
66035;HTU21D;52805;51.074;5.842;2023-05-15T00:17:17;15.85;118.99
66035;HTU21D;52805;51.074;5.842;2023-05-15T00:19:44;15.82;118.99
66035;HTU21D;52805;51.074;5.842;2023-05-15T00:22:10;15.76;118.99
66035;HTU21D;52805;51.074;5.842;2023-05-15T00:24:35;15.75;118.99
66035;HTU21D;52805;51.074;5.842;2023-05-15T00:27:01;15.74;118.99
66035;HTU21D;52805;51.074;5.842;2023-05-15T00:29:27;15.73;118.99
66035;HTU21D;52805;51.074;5.842;2023-05-15T00:31:52;15.69;118.99
66035;HTU21D;52805;51.074;5.842;2023-05-15T00:34:18;15.65;118.99
66035;HTU21D;52805;51.074;5.842;2023-05-15T00:36:44;15.63;118.99
66035;HTU21D;52805;51.074;5.842;2023-05-15T00:39:10;15.58;118.99
66035;HTU21D;52805;51.074;5.842;2023-05-15T00:41:36;15.56;118.99
66035;HTU21D;52805;51.074;5.842;2023-05-15T00:44:04;15.52;118.99
66035;HTU21D;52805;51.074;5.842;2023-05-15T00:46:31;15.48;118.99
66035;HTU21D;52805;51.074;5.842;2023-05-15T00:49:02;15.44;118.99
66035;HTU21D;52805;51.074;5.842;2023-05-15T00:51:29;15.42;118.99
66035;HTU21D;52805;51.074;5.842;2023-05-15T00:53:54;15.39;118.99
66035;HTU21D;52805;51.074;5.842;2023-05-15T00:56:22;15.36;118.99
66035;HTU21D;52805;51.074;5.842;2023-05-15T00:58:51;15.33;118.99
66035;HTU21D;52805;51.074;5.842;2023-05-15T01:01:18;15.32;118.99
66035;HTU21D;52805;51.074;5.842;2023-05-15T01:03:45;15.32;118.99
66035;HTU21D;52805;51.074;5.842;2023-05-15T01:06:11;15.31;118.99
66035;HTU21D;52805;51.074;5.842;2023-05-15T01:08:42;15.29;118.99
66035;HTU21D;52805;51.074;5.842;2023-05-15T01:11:12;15.24;118.99
66035;HTU21D;52805;51.074;5.842;2023-05-15T01:13:38;15.21;118.99
66035;HTU21D;52805;51.074;5.842;2023-05-15T01:16:06;15.16;118.99
66035;HTU21D;52805;51.074;5.842;2023-05-15T01:18:33;15.13;118.99
66035;HTU21D;52805;51.074;5.842;2023-05-15T01:21:16;15.11;118.99
66035;HTU21D;52805;51.074;5.842;2023-05-15T01:30:34;15.01;118.99
66035;HTU21D;52805;51.074;5.842;2023-05-15T01:35:30;14.94;118.99
66035;HTU21D;52805;51.074;5.842;2023-05-15T01:38:22;14.91;118.99
66035;HTU21D;52805;51.074;5.842;2023-05-15T01:41:18;14.85;118.99
66035;HTU21D;52805;51.074;5.842;2023-05-15T01:43:51;14.82;118.99
66035;HTU21D;52805;51.074;5.842;2023-05-15T01:46:22;14.81;118.99
66035;HTU21D;52805;51.074;5.842;2023-05-15T01:48:51;14.78;118.99
66035;HTU21D;52805;51.074;5.842;2023-05-15T01:51:19;14.78;118.99
66035;HTU21D;52805;51.074;5.842;2023-05-15T01:53:48;14.77;118.99
66035;HTU21D;52805;51.074;5.842;2023-05-15T01:56:17;14.74;118.99
66035;HTU21D;52805;51.074;5.842;2023-05-15T01:58:46;14.74;118.99
66035;HTU21D;52805;51.074;5.842;2023-05-15T02:01:13;14.72;118.99
66035;HTU21D;52805;51.074;5.842;2023-05-15T02:03:40;14.73;118.99
66035;HTU21D;52805;51.074;5.842;2023-05-15T02:06:07;14.67;118.99
66035;HTU21D;52805;51.074;5.842;2023-05-15T02:08:34;14.66;118.99
66035;HTU21D;52805;51.074;5.842;2023-05-15T02:11:02;14.64;118.99
66035;HTU21D;52805;51.074;5.842;2023-05-15T02:13:29;14.64;118.99
66035;HTU21D;52805;51.074;5.842;2023-05-15T02:15:56;14.62;118.99
66035;HTU21D;52805;51.074;5.842;2023-05-15T02:18:22;14.62;118.99
66035;HTU21D;52805;51.074;5.842;2023-05-15T02:20:48;14.59;118.99
66035;HTU21D;52805;51.074;5.842;2023-05-15T02:23:14;14.59;118.99
66035;HTU21D;52805;51.074;5.842;2023-05-15T02:28:33;14.62;118.99
66035;HTU21D;52805;51.074;5.842;2023-05-15T02:31:13;14.60;118.99
66035;HTU21D;52805;51.074;5.842;2023-05-15T02:33:51;14.58;118.99
66035;HTU21D;52805;51.074;5.842;2023-05-15T02:36:24;14.58;118.99
66035;HTU21D;52805;51.074;5.842;2023-05-15T02:38:52;14.55;118.99
66035;HTU21D;52805;51.074;5.842;2023-05-15T02:41:20;14.52;118.99
66035;HTU21D;52805;51.074;5.842;2023-05-15T02:43:49;14.45;118.99
66035;HTU21D;52805;51.074;5.842;2023-05-15T02:46:18;14.42;118.99
66035;HTU21D;52805;51.074;5.842;2023-05-15T02:48:46;14.41;118.99
66035;HTU21D;52805;51.074;5.842;2023-05-15T02:51:13;14.38;118.99
66035;HTU21D;52805;51.074;5.842;2023-05-15T02:53:40;14.35;118.99
66035;HTU21D;52805;51.074;5.842;2023-05-15T02:56:06;14.32;118.99
66035;HTU21D;52805;51.074;5.842;2023-05-15T02:58:33;14.28;118.99
66035;HTU21D;52805;51.074;5.842;2023-05-15T03:00:59;14.27;118.99
66035;HTU21D;52805;51.074;5.842;2023-05-15T03:03:25;14.23;118.99
66035;HTU21D;52805;51.074;5.842;2023-05-15T03:05:51;14.23;118.99
66035;HTU21D;52805;51.074;5.842;2023-05-15T03:08:17;14.20;118.99
66035;HTU21D;52805;51.074;5.842;2023-05-15T03:10:44;14.17;118.99
66035;HTU21D;52805;51.074;5.842;2023-05-15T03:13:09;14.15;118.99
66035;HTU21D;52805;51.074;5.842;2023-05-15T03:15:35;14.12;118.99
66035;HTU21D;52805;51.074;5.842;2023-05-15T03:18:01;14.07;118.99
66035;HTU21D;52805;51.074;5.842;2023-05-15T03:20:27;14.04;118.99
66035;HTU21D;52805;51.074;5.842;2023-05-15T03:22:53;14.03;118.99
66035;HTU21D;52805;51.074;5.842;2023-05-15T03:25:18;13.97;118.99
66035;HTU21D;52805;51.074;5.842;2023-05-15T03:27:44;13.95;118.99
66035;HTU21D;52805;51.074;5.842;2023-05-15T03:30:10;13.90;118.99
66035;HTU21D;52805;51.074;5.842;2023-05-15T03:32:36;13.84;118.99
66035;HTU21D;52805;51.074;5.842;2023-05-15T03:35:01;13.81;118.99
66035;HTU21D;52805;51.074;5.842;2023-05-15T03:37:27;13.78;118.99
66035;HTU21D;52805;51.074;5.842;2023-05-15T03:39:53;13.76;118.99
66035;HTU21D;52805;51.074;5.842;2023-05-15T03:42:19;13.74;118.99
66035;HTU21D;52805;51.074;5.842;2023-05-15T03:44:48;13.73;118.99
66035;HTU21D;52805;51.074;5.842;2023-05-15T03:47:14;13.74;118.99
66035;HTU21D;52805;51.074;5.842;2023-05-15T03:49:41;13.74;118.99
66035;HTU21D;52805;51.074;5.842;2023-05-15T03:52:07;13.70;118.99
66035;HTU21D;52805;51.074;5.842;2023-05-15T03:54:35;13.71;118.99
66035;HTU21D;52805;51.074;5.842;2023-05-15T03:57:01;13.71;118.99
66035;HTU21D;52805;51.074;5.842;2023-05-15T03:59:29;13.70;118.99
66035;HTU21D;52805;51.074;5.842;2023-05-15T04:01:55;13.66;118.99
66035;HTU21D;52805;51.074;5.842;2023-05-15T04:04:22;13.62;118.99
66035;HTU21D;52805;51.074;5.842;2023-05-15T04:06:50;13.60;118.99
66035;HTU21D;52805;51.074;5.842;2023-05-15T04:09:15;13.52;118.99
66035;HTU21D;52805;51.074;5.842;2023-05-15T04:11:41;13.48;118.99
66035;HTU21D;52805;51.074;5.842;2023-05-15T04:14:07;13.44;118.99
66035;HTU21D;52805;51.074;5.842;2023-05-15T04:16:33;13.44;118.99
66035;HTU21D;52805;51.074;5.842;2023-05-15T04:18:58;13.37;118.99
66035;HTU21D;52805;51.074;5.842;2023-05-15T04:21:24;13.35;118.99
66035;HTU21D;52805;51.074;5.842;2023-05-15T04:23:50;13.34;118.99
66035;HTU21D;52805;51.074;5.842;2023-05-15T04:26:15;13.32;118.99
66035;HTU21D;52805;51.074;5.842;2023-05-15T04:28:41;13.26;118.99
66035;HTU21D;52805;51.074;5.842;2023-05-15T04:31:07;13.24;118.99
66035;HTU21D;52805;51.074;5.842;2023-05-15T04:33:33;13.23;118.99
66035;HTU21D;52805;51.074;5.842;2023-05-15T04:35:58;13.20;118.99
66035;HTU21D;52805;51.074;5.842;2023-05-15T04:38:24;13.16;118.99
66035;HTU21D;52805;51.074;5.842;2023-05-15T04:40:50;13.15;118.99
66035;HTU21D;52805;51.074;5.842;2023-05-15T04:43:15;13.15;118.99
66035;HTU21D;52805;51.074;5.842;2023-05-15T04:45:41;13.18;118.99
66035;HTU21D;52805;51.074;5.842;2023-05-15T04:48:07;13.16;118.99
66035;HTU21D;52805;51.074;5.842;2023-05-15T04:50:33;13.15;118.99
66035;HTU21D;52805;51.074;5.842;2023-05-15T04:52:58;13.15;118.99
66035;HTU21D;52805;51.074;5.842;2023-05-15T04:55:24;13.14;118.99
66035;HTU21D;52805;51.074;5.842;2023-05-15T04:57:50;13.12;118.99
66035;HTU21D;52805;51.074;5.842;2023-05-15T05:00:15;13.16;118.99
66035;HTU21D;52805;51.074;5.842;2023-05-15T05:02:41;13.14;118.99
66035;HTU21D;52805;51.074;5.842;2023-05-15T05:05:10;13.16;118.99
66035;HTU21D;52805;51.074;5.842;2023-05-15T05:07:36;13.17;118.99
66035;HTU21D;52805;51.074;5.842;2023-05-15T05:10:02;13.19;118.99
66035;HTU21D;52805;51.074;5.842;2023-05-15T05:12:29;13.22;118.99
66035;HTU21D;52805;51.074;5.842;2023-05-15T05:14:55;13.23;118.99
66035;HTU21D;52805;51.074;5.842;2023-05-15T05:17:21;13.27;118.99
66035;HTU21D;52805;51.074;5.842;2023-05-15T05:19:47;13.31;118.99
66035;HTU21D;52805;51.074;5.842;2023-05-15T05:22:12;13.34;118.99
66035;HTU21D;52805;51.074;5.842;2023-05-15T05:24:38;13.34;118.99
66035;HTU21D;52805;51.074;5.842;2023-05-15T05:27:04;13.36;118.99
66035;HTU21D;52805;51.074;5.842;2023-05-15T05:29:30;13.39;118.99
66035;HTU21D;52805;51.074;5.842;2023-05-15T05:31:57;13.39;118.99
66035;HTU21D;52805;51.074;5.842;2023-05-15T05:34:30;13.38;118.99
66035;HTU21D;52805;51.074;5.842;2023-05-15T05:36:56;13.37;118.99
66035;HTU21D;52805;51.074;5.842;2023-05-15T05:39:22;13.38;118.99
66035;HTU21D;52805;51.074;5.842;2023-05-15T05:41:47;13.39;118.99
66035;HTU21D;52805;51.074;5.842;2023-05-15T05:44:13;13.40;118.99
66035;HTU21D;52805;51.074;5.842;2023-05-15T05:46:39;13.39;118.99
66035;HTU21D;52805;51.074;5.842;2023-05-15T05:49:05;13.39;118.99
66035;HTU21D;52805;51.074;5.842;2023-05-15T05:51:30;13.37;118.99
66035;HTU21D;52805;51.074;5.842;2023-05-15T05:53:56;13.37;118.99
66035;HTU21D;52805;51.074;5.842;2023-05-15T05:56:22;13.43;118.99
66035;HTU21D;52805;51.074;5.842;2023-05-15T05:58:48;13.46;118.99
66035;HTU21D;52805;51.074;5.842;2023-05-15T06:01:13;13.53;118.99
66035;HTU21D;52805;51.074;5.842;2023-05-15T06:03:41;13.59;118.99
66035;HTU21D;52805;51.074;5.842;2023-05-15T06:06:07;13.69;118.99
66035;HTU21D;52805;51.074;5.842;2023-05-15T06:08:33;13.78;118.99
66035;HTU21D;52805;51.074;5.842;2023-05-15T06:10:58;13.85;118.99
66035;HTU21D;52805;51.074;5.842;2023-05-15T06:13:24;13.92;118.99
66035;HTU21D;52805;51.074;5.842;2023-05-15T06:15:50;13.94;118.99
66035;HTU21D;52805;51.074;5.842;2023-05-15T06:18:16;13.96;118.99
66035;HTU21D;52805;51.074;5.842;2023-05-15T06:20:41;14.00;118.99
66035;HTU21D;52805;51.074;5.842;2023-05-15T06:23:08;14.01;118.99
66035;HTU21D;52805;51.074;5.842;2023-05-15T06:25:34;14.04;118.99
66035;HTU21D;52805;51.074;5.842;2023-05-15T06:28:00;14.03;118.99
66035;HTU21D;52805;51.074;5.842;2023-05-15T06:30:25;13.98;118.99
66035;HTU21D;52805;51.074;5.842;2023-05-15T06:32:52;13.95;118.99
66035;HTU21D;52805;51.074;5.842;2023-05-15T06:35:18;13.90;118.99
66035;HTU21D;52805;51.074;5.842;2023-05-15T06:37:43;13.91;118.99
66035;HTU21D;52805;51.074;5.842;2023-05-15T06:40:15;13.92;118.99
66035;HTU21D;52805;51.074;5.842;2023-05-15T06:42:41;13.91;118.99
66035;HTU21D;52805;51.074;5.842;2023-05-15T06:45:07;13.94;118.99
66035;HTU21D;52805;51.074;5.842;2023-05-15T06:47:33;13.98;118.99
66035;HTU21D;52805;51.074;5.842;2023-05-15T06:49:59;13.98;118.99
66035;HTU21D;52805;51.074;5.842;2023-05-15T06:52:25;14.00;118.99
66035;HTU21D;52805;51.074;5.842;2023-05-15T06:54:50;14.05;118.99
66035;HTU21D;52805;51.074;5.842;2023-05-15T06:57:17;14.10;118.99
66035;HTU21D;52805;51.074;5.842;2023-05-15T06:59:43;14.11;118.99
66035;HTU21D;52805;51.074;5.842;2023-05-15T07:02:08;14.08;118.99
66035;HTU21D;52805;51.074;5.842;2023-05-15T07:04:34;14.08;118.99
66035;HTU21D;52805;51.074;5.842;2023-05-15T07:07:00;14.07;118.99
66035;HTU21D;52805;51.074;5.842;2023-05-15T07:09:26;14.10;118.99
66035;HTU21D;52805;51.074;5.842;2023-05-15T07:11:51;14.13;118.99
66035;HTU21D;52805;51.074;5.842;2023-05-15T07:14:17;14.20;118.99
66035;HTU21D;52805;51.074;5.842;2023-05-15T07:16:43;14.25;118.99
66035;HTU21D;52805;51.074;5.842;2023-05-15T07:19:09;14.30;118.99
66035;HTU21D;52805;51.074;5.842;2023-05-15T07:21:35;14.30;118.99
66035;HTU21D;52805;51.074;5.842;2023-05-15T07:24:02;14.30;118.99
66035;HTU21D;52805;51.074;5.842;2023-05-15T07:26:30;14.34;118.99
66035;HTU21D;52805;51.074;5.842;2023-05-15T07:28:57;14.40;118.99
66035;HTU21D;52805;51.074;5.842;2023-05-15T07:31:22;14.49;118.99
66035;HTU21D;52805;51.074;5.842;2023-05-15T07:33:48;14.51;118.99
66035;HTU21D;52805;51.074;5.842;2023-05-15T07:36:14;14.58;118.99
66035;HTU21D;52805;51.074;5.842;2023-05-15T07:38:39;14.69;118.99
66035;HTU21D;52805;51.074;5.842;2023-05-15T07:41:05;14.74;118.99
66035;HTU21D;52805;51.074;5.842;2023-05-15T07:43:30;14.82;118.99
66035;HTU21D;52805;51.074;5.842;2023-05-15T07:45:56;14.92;118.99
66035;HTU21D;52805;51.074;5.842;2023-05-15T07:48:22;15.03;118.99
66035;HTU21D;52805;51.074;5.842;2023-05-15T07:50:47;15.07;118.99
66035;HTU21D;52805;51.074;5.842;2023-05-15T07:53:15;15.11;118.99
66035;HTU21D;52805;51.074;5.842;2023-05-15T07:55:45;15.11;118.99
66035;HTU21D;52805;51.074;5.842;2023-05-15T07:58:10;15.14;118.99
66035;HTU21D;52805;51.074;5.842;2023-05-15T08:00:36;15.19;118.99
66035;HTU21D;52805;51.074;5.842;2023-05-15T08:03:02;15.24;118.99
66035;HTU21D;52805;51.074;5.842;2023-05-15T08:05:28;15.31;118.99
66035;HTU21D;52805;51.074;5.842;2023-05-15T08:07:55;15.39;118.99
66035;HTU21D;52805;51.074;5.842;2023-05-15T08:10:21;15.46;118.99
66035;HTU21D;52805;51.074;5.842;2023-05-15T08:12:47;15.52;118.99
66035;HTU21D;52805;51.074;5.842;2023-05-15T08:15:13;15.58;118.99
66035;HTU21D;52805;51.074;5.842;2023-05-15T08:17:39;15.60;118.99
66035;HTU21D;52805;51.074;5.842;2023-05-15T08:20:05;15.56;118.99
66035;HTU21D;52805;51.074;5.842;2023-05-15T08:22:34;15.61;118.99
66035;HTU21D;52805;51.074;5.842;2023-05-15T08:24:59;15.72;118.99
66035;HTU21D;52805;51.074;5.842;2023-05-15T08:27:25;15.78;118.99
66035;HTU21D;52805;51.074;5.842;2023-05-15T08:29:52;15.83;118.99
66035;HTU21D;52805;51.074;5.842;2023-05-15T08:32:19;15.90;118.99
66035;HTU21D;52805;51.074;5.842;2023-05-15T08:34:44;15.99;118.99
66035;HTU21D;52805;51.074;5.842;2023-05-15T08:37:10;16.08;118.99
66035;HTU21D;52805;51.074;5.842;2023-05-15T08:39:36;16.13;118.99
66035;HTU21D;52805;51.074;5.842;2023-05-15T08:42:18;16.18;118.99
66035;HTU21D;52805;51.074;5.842;2023-05-15T08:44:45;16.24;118.99
66035;HTU21D;52805;51.074;5.842;2023-05-15T08:47:13;16.27;118.99
66035;HTU21D;52805;51.074;5.842;2023-05-15T08:52:25;16.35;118.99
66035;HTU21D;52805;51.074;5.842;2023-05-15T08:54:51;16.35;118.99
66035;HTU21D;52805;51.074;5.842;2023-05-15T08:57:17;16.37;118.99
66035;HTU21D;52805;51.074;5.842;2023-05-15T08:59:45;16.41;118.99
66035;HTU21D;52805;51.074;5.842;2023-05-15T09:02:10;16.43;118.99
66035;HTU21D;52805;51.074;5.842;2023-05-15T09:04:36;16.43;118.99
66035;HTU21D;52805;51.074;5.842;2023-05-15T09:07:02;16.49;118.99
66035;HTU21D;52805;51.074;5.842;2023-05-15T09:09:31;16.55;118.99
66035;HTU21D;52805;51.074;5.842;2023-05-15T09:11:59;16.58;118.99
66035;HTU21D;52805;51.074;5.842;2023-05-15T09:14:27;16.65;118.99
66035;HTU21D;52805;51.074;5.842;2023-05-15T09:16:53;16.77;118.99
66035;HTU21D;52805;51.074;5.842;2023-05-15T09:19:19;16.86;118.99
66035;HTU21D;52805;51.074;5.842;2023-05-15T09:21:47;16.95;118.99
66035;HTU21D;52805;51.074;5.842;2023-05-15T09:24:21;17.07;118.99
66035;HTU21D;52805;51.074;5.842;2023-05-15T09:27:08;17.17;118.99
66035;HTU21D;52805;51.074;5.842;2023-05-15T09:29:35;17.29;118.99
66035;HTU21D;52805;51.074;5.842;2023-05-15T09:32:03;17.40;118.99
66035;HTU21D;52805;51.074;5.842;2023-05-15T09:34:30;17.54;118.99
66035;HTU21D;52805;51.074;5.842;2023-05-15T09:36:57;17.67;118.99
66035;HTU21D;52805;51.074;5.842;2023-05-15T09:39:23;17.77;118.99
66035;HTU21D;52805;51.074;5.842;2023-05-15T09:41:48;17.89;118.99
66035;HTU21D;52805;51.074;5.842;2023-05-15T09:46:44;18.02;118.99
66035;HTU21D;52805;51.074;5.842;2023-05-15T09:49:11;18.06;118.99
66035;HTU21D;52805;51.074;5.842;2023-05-15T09:51:37;18.11;118.99
66035;HTU21D;52805;51.074;5.842;2023-05-15T09:54:03;18.19;118.99
66035;HTU21D;52805;51.074;5.842;2023-05-15T09:56:31;18.27;118.99
66035;HTU21D;52805;51.074;5.842;2023-05-15T09:58:58;18.33;118.99
66035;HTU21D;52805;51.074;5.842;2023-05-15T10:01:25;18.36;118.99
66035;HTU21D;52805;51.074;5.842;2023-05-15T10:03:59;18.42;118.99
66035;HTU21D;52805;51.074;5.842;2023-05-15T10:06:25;18.54;118.99
66035;HTU21D;52805;51.074;5.842;2023-05-15T10:08:52;18.67;118.99
66035;HTU21D;52805;51.074;5.842;2023-05-15T10:11:19;18.76;118.99
66035;HTU21D;52805;51.074;5.842;2023-05-15T10:13:48;18.84;118.99
66035;HTU21D;52805;51.074;5.842;2023-05-15T10:16:14;18.91;118.99
66035;HTU21D;52805;51.074;5.842;2023-05-15T10:18:43;18.95;118.99
66035;HTU21D;52805;51.074;5.842;2023-05-15T10:21:11;18.96;118.99
66035;HTU21D;52805;51.074;5.842;2023-05-15T10:23:40;19.05;118.99
66035;HTU21D;52805;51.074;5.842;2023-05-15T10:28:52;19.18;118.99
66035;HTU21D;52805;51.074;5.842;2023-05-15T10:31:19;19.22;118.99
66035;HTU21D;52805;51.074;5.842;2023-05-15T10:33:46;19.27;118.99
66035;HTU21D;52805;51.074;5.842;2023-05-15T10:36:12;19.40;118.99
66035;HTU21D;52805;51.074;5.842;2023-05-15T10:38:39;19.60;118.99
66035;HTU21D;52805;51.074;5.842;2023-05-15T10:41:06;19.70;118.99
66035;HTU21D;52805;51.074;5.842;2023-05-15T10:43:34;19.82;118.99
66035;HTU21D;52805;51.074;5.842;2023-05-15T10:46:00;19.95;118.99
66035;HTU21D;52805;51.074;5.842;2023-05-15T10:48:27;20.06;118.99
66035;HTU21D;52805;51.074;5.842;2023-05-15T10:50:53;20.17;118.99
66035;HTU21D;52805;51.074;5.842;2023-05-15T10:53:22;20.21;118.99
66035;HTU21D;52805;51.074;5.842;2023-05-15T10:55:48;20.30;118.99
66035;HTU21D;52805;51.074;5.842;2023-05-15T10:58:14;20.26;118.99
66035;HTU21D;52805;51.074;5.842;2023-05-15T11:00:42;20.30;118.99
66035;HTU21D;52805;51.074;5.842;2023-05-15T11:03:15;20.40;118.99
66035;HTU21D;52805;51.074;5.842;2023-05-15T11:06:06;20.55;118.99
66035;HTU21D;52805;51.074;5.842;2023-05-15T11:08:37;20.65;118.99
66035;HTU21D;52805;51.074;5.842;2023-05-15T11:11:03;20.71;118.99
66035;HTU21D;52805;51.074;5.842;2023-05-15T11:22:00;21.18;118.99
66035;HTU21D;52805;51.074;5.842;2023-05-15T11:27:12;21.45;118.99
66035;HTU21D;52805;51.074;5.842;2023-05-15T11:37:56;22.25;118.99
66035;HTU21D;52805;51.074;5.842;2023-05-15T11:45:35;22.31;118.99
66035;HTU21D;52805;51.074;5.842;2023-05-15T11:48:06;22.24;118.99
66035;HTU21D;52805;51.074;5.842;2023-05-15T11:50:34;22.10;118.99
66035;HTU21D;52805;51.074;5.842;2023-05-15T11:53:04;21.91;118.99
66035;HTU21D;52805;51.074;5.842;2023-05-15T11:55:35;21.70;118.99
66035;HTU21D;52805;51.074;5.842;2023-05-15T11:58:02;21.58;118.99
66035;HTU21D;52805;51.074;5.842;2023-05-15T12:00:29;21.55;118.99
66035;HTU21D;52805;51.074;5.842;2023-05-15T12:02:55;21.55;118.99
66035;HTU21D;52805;51.074;5.842;2023-05-15T12:05:21;21.35;118.99
66035;HTU21D;52805;51.074;5.842;2023-05-15T12:07:47;21.24;118.99
66035;HTU21D;52805;51.074;5.842;2023-05-15T12:10:13;21.13;118.99
66035;HTU21D;52805;51.074;5.842;2023-05-15T12:12:41;20.98;118.99
66035;HTU21D;52805;51.074;5.842;2023-05-15T12:15:14;20.79;118.99
66035;HTU21D;52805;51.074;5.842;2023-05-15T12:17:43;20.50;118.99
66035;HTU21D;52805;51.074;5.842;2023-05-15T12:20:18;20.27;118.99
66035;HTU21D;52805;51.074;5.842;2023-05-15T12:22:44;20.17;118.99
66035;HTU21D;52805;51.074;5.842;2023-05-15T12:25:11;20.15;118.99
66035;HTU21D;52805;51.074;5.842;2023-05-15T12:27:38;20.17;118.99
66035;HTU21D;52805;51.074;5.842;2023-05-15T12:30:06;20.21;118.99
66035;HTU21D;52805;51.074;5.842;2023-05-15T12:32:36;20.21;118.99
66035;HTU21D;52805;51.074;5.842;2023-05-15T12:35:03;20.14;118.99
66035;HTU21D;52805;51.074;5.842;2023-05-15T12:37:34;20.06;118.99
66035;HTU21D;52805;51.074;5.842;2023-05-15T12:40:02;19.94;118.99
66035;HTU21D;52805;51.074;5.842;2023-05-15T12:42:44;19.82;118.99
66035;HTU21D;52805;51.074;5.842;2023-05-15T12:45:14;19.75;118.99
66035;HTU21D;52805;51.074;5.842;2023-05-15T12:47:44;19.59;118.99
66035;HTU21D;52805;51.074;5.842;2023-05-15T12:50:16;19.52;118.99
66035;HTU21D;52805;51.074;5.842;2023-05-15T12:53:15;19.52;118.99
66035;HTU21D;52805;51.074;5.842;2023-05-15T12:55:44;19.59;118.99
66035;HTU21D;52805;51.074;5.842;2023-05-15T12:58:12;19.66;118.99
66035;HTU21D;52805;51.074;5.842;2023-05-15T13:00:40;19.68;118.99
66035;HTU21D;52805;51.074;5.842;2023-05-15T13:03:11;19.74;118.99
66035;HTU21D;52805;51.074;5.842;2023-05-15T13:05:41;19.74;118.99
66035;HTU21D;52805;51.074;5.842;2023-05-15T13:08:06;19.77;118.99
66035;HTU21D;52805;51.074;5.842;2023-05-15T13:10:34;19.89;118.99
66035;HTU21D;52805;51.074;5.842;2023-05-15T13:13:00;19.95;118.99
66035;HTU21D;52805;51.074;5.842;2023-05-15T13:15:42;20.02;118.99
66035;HTU21D;52805;51.074;5.842;2023-05-15T13:18:15;20.00;118.99
66035;HTU21D;52805;51.074;5.842;2023-05-15T13:20:49;19.97;118.99
66035;HTU21D;52805;51.074;5.842;2023-05-15T13:23:19;19.96;118.99
66035;HTU21D;52805;51.074;5.842;2023-05-15T13:25:45;19.86;118.99
66035;HTU21D;52805;51.074;5.842;2023-05-15T13:28:12;19.75;118.99
66035;HTU21D;52805;51.074;5.842;2023-05-15T13:30:39;19.79;118.99
66035;HTU21D;52805;51.074;5.842;2023-05-15T13:33:06;19.80;118.99
66035;HTU21D;52805;51.074;5.842;2023-05-15T13:35:33;19.82;118.99
66035;HTU21D;52805;51.074;5.842;2023-05-15T13:37:58;19.73;118.99
66035;HTU21D;52805;51.074;5.842;2023-05-15T13:40:24;19.76;118.99
66035;HTU21D;52805;51.074;5.842;2023-05-15T13:42:50;19.81;118.99
66035;HTU21D;52805;51.074;5.842;2023-05-15T13:45:16;19.75;118.99
66035;HTU21D;52805;51.074;5.842;2023-05-15T13:47:42;19.63;118.99
66035;HTU21D;52805;51.074;5.842;2023-05-15T13:50:10;19.48;118.99
66035;HTU21D;52805;51.074;5.842;2023-05-15T13:52:38;19.24;118.99
66035;HTU21D;52805;51.074;5.842;2023-05-15T13:55:04;19.03;118.99
66035;HTU21D;52805;51.074;5.842;2023-05-15T13:57:30;18.97;118.99
66035;HTU21D;52805;51.074;5.842;2023-05-15T13:59:57;18.78;118.99
66035;HTU21D;52805;51.074;5.842;2023-05-15T14:02:23;18.59;118.99
66035;HTU21D;52805;51.074;5.842;2023-05-15T14:04:52;18.54;118.99
66035;HTU21D;52805;51.074;5.842;2023-05-15T14:07:20;18.41;118.99
66035;HTU21D;52805;51.074;5.842;2023-05-15T14:09:46;18.36;118.99
66035;HTU21D;52805;51.074;5.842;2023-05-15T14:12:11;18.42;118.99
66035;HTU21D;52805;51.074;5.842;2023-05-15T14:14:37;18.35;118.99
66035;HTU21D;52805;51.074;5.842;2023-05-15T14:17:05;18.26;118.99
66035;HTU21D;52805;51.074;5.842;2023-05-15T14:19:31;18.28;118.99
66035;HTU21D;52805;51.074;5.842;2023-05-15T14:21:57;18.30;118.99
66035;HTU21D;52805;51.074;5.842;2023-05-15T14:24:22;18.48;118.99
66035;HTU21D;52805;51.074;5.842;2023-05-15T14:26:48;18.64;118.99
66035;HTU21D;52805;51.074;5.842;2023-05-15T14:29:14;18.86;118.99
66035;HTU21D;52805;51.074;5.842;2023-05-15T14:31:40;19.07;118.99
66035;HTU21D;52805;51.074;5.842;2023-05-15T14:34:07;19.15;118.99
66035;HTU21D;52805;51.074;5.842;2023-05-15T14:36:33;19.30;118.99
66035;HTU21D;52805;51.074;5.842;2023-05-15T14:38:59;19.55;118.99
66035;HTU21D;52805;51.074;5.842;2023-05-15T14:41:26;19.70;118.99
66035;HTU21D;52805;51.074;5.842;2023-05-15T14:43:51;19.87;118.99
66035;HTU21D;52805;51.074;5.842;2023-05-15T14:46:17;20.03;118.99
66035;HTU21D;52805;51.074;5.842;2023-05-15T14:48:43;20.03;118.99
66035;HTU21D;52805;51.074;5.842;2023-05-15T14:51:09;20.04;118.99
66035;HTU21D;52805;51.074;5.842;2023-05-15T14:53:35;20.05;118.99
66035;HTU21D;52805;51.074;5.842;2023-05-15T14:56:00;20.25;118.99
66035;HTU21D;52805;51.074;5.842;2023-05-15T14:58:26;20.31;118.99
66035;HTU21D;52805;51.074;5.842;2023-05-15T15:00:52;20.36;118.99
66035;HTU21D;52805;51.074;5.842;2023-05-15T15:03:17;20.46;118.99
66035;HTU21D;52805;51.074;5.842;2023-05-15T15:05:43;20.45;118.99
66035;HTU21D;52805;51.074;5.842;2023-05-15T15:08:10;20.41;118.99
66035;HTU21D;52805;51.074;5.842;2023-05-15T15:10:39;20.40;118.99
66035;HTU21D;52805;51.074;5.842;2023-05-15T15:13:06;20.30;118.99
66035;HTU21D;52805;51.074;5.842;2023-05-15T15:15:34;20.18;118.99
66035;HTU21D;52805;51.074;5.842;2023-05-15T15:18:00;20.10;118.99
66035;HTU21D;52805;51.074;5.842;2023-05-15T15:20:27;20.02;118.99
66035;HTU21D;52805;51.074;5.842;2023-05-15T15:22:54;19.91;118.99
66035;HTU21D;52805;51.074;5.842;2023-05-15T15:25:20;19.73;118.99
66035;HTU21D;52805;51.074;5.842;2023-05-15T15:27:47;19.36;118.99
66035;HTU21D;52805;51.074;5.842;2023-05-15T15:30:14;18.93;118.99
66035;HTU21D;52805;51.074;5.842;2023-05-15T15:32:41;18.68;118.99
66035;HTU21D;52805;51.074;5.842;2023-05-15T15:35:08;18.40;118.99
66035;HTU21D;52805;51.074;5.842;2023-05-15T15:37:35;18.17;118.99
66035;HTU21D;52805;51.074;5.842;2023-05-15T15:40:03;17.72;118.99
66035;HTU21D;52805;51.074;5.842;2023-05-15T15:42:32;17.46;118.99
66035;HTU21D;52805;51.074;5.842;2023-05-15T15:44:59;17.19;118.99
66035;HTU21D;52805;51.074;5.842;2023-05-15T15:47:26;17.03;118.99